sensor_id;sensor_type;location;lat;lon;timestamp;temperature;humidity
26186;DHT22;20067;48.764;9.176;2023-01-20T00:01:30;1.70;91.30
26186;DHT22;20067;48.764;9.176;2023-01-20T00:03:56;1.70;91.30
26186;DHT22;20067;48.764;9.176;2023-01-20T00:06:23;1.80;91.30
26186;DHT22;20067;48.764;9.176;2023-01-20T00:08:50;1.80;91.30
26186;DHT22;20067;48.764;9.176;2023-01-20T00:11:16;1.80;91.30
26186;DHT22;20067;48.764;9.176;2023-01-20T00:13:42;1.80;91.30
26186;DHT22;20067;48.764;9.176;2023-01-20T00:16:09;1.80;91.30
26186;DHT22;20067;48.764;9.176;2023-01-20T00:18:35;1.80;91.30
26186;DHT22;20067;48.764;9.176;2023-01-20T00:21:09;1.70;91.30
26186;DHT22;20067;48.764;9.176;2023-01-20T00:23:35;1.70;91.30
26186;DHT22;20067;48.764;9.176;2023-01-20T00:26:08;1.70;91.30
26186;DHT22;20067;48.764;9.176;2023-01-20T00:28:35;1.80;91.30
26186;DHT22;20067;48.764;9.176;2023-01-20T00:31:19;1.80;91.30
26186;DHT22;20067;48.764;9.176;2023-01-20T00:33:46;1.90;91.30
26186;DHT22;20067;48.764;9.176;2023-01-20T00:36:13;1.90;91.30
26186;DHT22;20067;48.764;9.176;2023-01-20T00:38:39;2.00;91.30
26186;DHT22;20067;48.764;9.176;2023-01-20T00:41:06;2.00;91.30
26186;DHT22;20067;48.764;9.176;2023-01-20T00:43:32;2.00;91.30
26186;DHT22;20067;48.764;9.176;2023-01-20T00:45:58;2.00;91.30
26186;DHT22;20067;48.764;9.176;2023-01-20T00:48:23;2.00;91.30
26186;DHT22;20067;48.764;9.176;2023-01-20T00:50:49;2.00;91.30
26186;DHT22;20067;48.764;9.176;2023-01-20T00:53:16;2.00;91.30
26186;DHT22;20067;48.764;9.176;2023-01-20T00:55:41;1.70;91.30
26186;DHT22;20067;48.764;9.176;2023-01-20T00:58:07;1.60;91.30
26186;DHT22;20067;48.764;9.176;2023-01-20T01:00:33;1.60;91.30
26186;DHT22;20067;48.764;9.176;2023-01-20T01:02:58;1.60;91.30
26186;DHT22;20067;48.764;9.176;2023-01-20T01:05:24;1.60;91.30
26186;DHT22;20067;48.764;9.176;2023-01-20T01:07:50;1.70;91.30
26186;DHT22;20067;48.764;9.176;2023-01-20T01:10:16;1.70;91.30
26186;DHT22;20067;48.764;9.176;2023-01-20T01:12:41;1.70;91.30
26186;DHT22;20067;48.764;9.176;2023-01-20T01:15:07;1.70;91.30
26186;DHT22;20067;48.764;9.176;2023-01-20T01:17:33;1.70;91.30
26186;DHT22;20067;48.764;9.176;2023-01-20T01:19:58;1.70;91.30
26186;DHT22;20067;48.764;9.176;2023-01-20T01:22:24;1.70;91.30
26186;DHT22;20067;48.764;9.176;2023-01-20T01:24:50;1.60;91.30
26186;DHT22;20067;48.764;9.176;2023-01-20T01:27:15;1.70;91.30
26186;DHT22;20067;48.764;9.176;2023-01-20T01:29:41;1.70;91.30
26186;DHT22;20067;48.764;9.176;2023-01-20T01:32:07;1.70;91.30
26186;DHT22;20067;48.764;9.176;2023-01-20T01:34:33;1.80;91.30
26186;DHT22;20067;48.764;9.176;2023-01-20T01:36:58;1.60;91.30
26186;DHT22;20067;48.764;9.176;2023-01-20T01:39:24;1.70;91.30
26186;DHT22;20067;48.764;9.176;2023-01-20T01:41:50;1.70;91.30
26186;DHT22;20067;48.764;9.176;2023-01-20T01:44:16;1.80;91.30
26186;DHT22;20067;48.764;9.176;2023-01-20T01:46:41;1.90;91.30
26186;DHT22;20067;48.764;9.176;2023-01-20T01:49:27;1.90;91.30
26186;DHT22;20067;48.764;9.176;2023-01-20T01:54:26;2.00;91.30
26186;DHT22;20067;48.764;9.176;2023-01-20T01:56:53;1.90;91.30
26186;DHT22;20067;48.764;9.176;2023-01-20T01:59:19;1.90;91.30
26186;DHT22;20067;48.764;9.176;2023-01-20T02:01:50;1.90;91.30
26186;DHT22;20067;48.764;9.176;2023-01-20T02:04:19;1.90;91.30
26186;DHT22;20067;48.764;9.176;2023-01-20T02:07:07;1.90;91.30
26186;DHT22;20067;48.764;9.176;2023-01-20T02:09:35;1.80;91.30
26186;DHT22;20067;48.764;9.176;2023-01-20T02:12:04;1.80;91.30
26186;DHT22;20067;48.764;9.176;2023-01-20T02:14:34;1.80;91.30
26186;DHT22;20067;48.764;9.176;2023-01-20T02:17:14;1.70;91.30
26186;DHT22;20067;48.764;9.176;2023-01-20T02:23:10;1.60;91.30
26186;DHT22;20067;48.764;9.176;2023-01-20T02:29:01;1.60;91.30
26186;DHT22;20067;48.764;9.176;2023-01-20T02:32:05;1.60;91.30
26186;DHT22;20067;48.764;9.176;2023-01-20T02:42:35;1.70;91.30
26186;DHT22;20067;48.764;9.176;2023-01-20T02:45:16;1.70;91.30
26186;DHT22;20067;48.764;9.176;2023-01-20T02:48:00;1.70;91.30
26186;DHT22;20067;48.764;9.176;2023-01-20T02:53:18;1.70;91.30
26186;DHT22;20067;48.764;9.176;2023-01-20T02:55:47;1.80;91.30
26186;DHT22;20067;48.764;9.176;2023-01-20T02:58:32;1.70;91.30
26186;DHT22;20067;48.764;9.176;2023-01-20T03:01:09;1.60;91.30
26186;DHT22;20067;48.764;9.176;2023-01-20T03:03:38;1.50;91.30
26186;DHT22;20067;48.764;9.176;2023-01-20T03:06:09;1.50;91.30
26186;DHT22;20067;48.764;9.176;2023-01-20T03:08:39;1.40;91.30
26186;DHT22;20067;48.764;9.176;2023-01-20T03:11:06;1.30;91.30
26186;DHT22;20067;48.764;9.176;2023-01-20T03:13:47;1.30;91.30
26186;DHT22;20067;48.764;9.176;2023-01-20T03:16:17;1.30;91.30
26186;DHT22;20067;48.764;9.176;2023-01-20T03:18:43;1.30;91.30
26186;DHT22;20067;48.764;9.176;2023-01-20T03:21:10;1.40;91.30
26186;DHT22;20067;48.764;9.176;2023-01-20T03:23:39;1.40;91.30
26186;DHT22;20067;48.764;9.176;2023-01-20T03:26:10;1.40;91.30
26186;DHT22;20067;48.764;9.176;2023-01-20T03:28:37;1.50;91.30
26186;DHT22;20067;48.764;9.176;2023-01-20T03:31:26;1.50;91.30
26186;DHT22;20067;48.764;9.176;2023-01-20T03:33:56;1.50;91.30
26186;DHT22;20067;48.764;9.176;2023-01-20T03:36:24;1.60;91.30
26186;DHT22;20067;48.764;9.176;2023-01-20T03:38:51;1.70;91.30
26186;DHT22;20067;48.764;9.176;2023-01-20T03:46:45;1.70;91.30
26186;DHT22;20067;48.764;9.176;2023-01-20T03:51:58;1.60;91.30
26186;DHT22;20067;48.764;9.176;2023-01-20T03:54:33;1.60;91.30
26186;DHT22;20067;48.764;9.176;2023-01-20T03:57:05;1.60;91.30
26186;DHT22;20067;48.764;9.176;2023-01-20T03:59:35;1.60;91.30
26186;DHT22;20067;48.764;9.176;2023-01-20T04:02:05;1.70;91.30
26186;DHT22;20067;48.764;9.176;2023-01-20T04:04:37;1.70;91.30
26186;DHT22;20067;48.764;9.176;2023-01-20T04:07:10;1.80;91.30
26186;DHT22;20067;48.764;9.176;2023-01-20T04:09:43;1.80;91.30
26186;DHT22;20067;48.764;9.176;2023-01-20T04:12:10;1.80;91.30
26186;DHT22;20067;48.764;9.176;2023-01-20T04:14:36;1.90;91.30
26186;DHT22;20067;48.764;9.176;2023-01-20T04:17:03;1.90;91.30
26186;DHT22;20067;48.764;9.176;2023-01-20T04:19:29;1.60;91.30
26186;DHT22;20067;48.764;9.176;2023-01-20T04:22:27;1.70;91.30
26186;DHT22;20067;48.764;9.176;2023-01-20T04:27:36;1.90;91.30
26186;DHT22;20067;48.764;9.176;2023-01-20T04:30:01;2.00;91.30
26186;DHT22;20067;48.764;9.176;2023-01-20T04:32:27;1.90;91.30
26186;DHT22;20067;48.764;9.176;2023-01-20T04:34:52;1.70;91.30
26186;DHT22;20067;48.764;9.176;2023-01-20T04:37:18;1.70;91.30
26186;DHT22;20067;48.764;9.176;2023-01-20T04:39:44;1.80;91.30
26186;DHT22;20067;48.764;9.176;2023-01-20T04:42:11;1.80;91.30
26186;DHT22;20067;48.764;9.176;2023-01-20T04:44:37;1.80;91.30
26186;DHT22;20067;48.764;9.176;2023-01-20T04:47:02;1.70;91.30
26186;DHT22;20067;48.764;9.176;2023-01-20T04:49:28;1.50;91.30
26186;DHT22;20067;48.764;9.176;2023-01-20T04:51:54;1.60;91.30
26186;DHT22;20067;48.764;9.176;2023-01-20T04:54:20;1.60;91.30
26186;DHT22;20067;48.764;9.176;2023-01-20T04:56:47;1.70;91.30
26186;DHT22;20067;48.764;9.176;2023-01-20T04:59:13;1.80;91.30
26186;DHT22;20067;48.764;9.176;2023-01-20T05:01:38;1.80;91.30
26186;DHT22;20067;48.764;9.176;2023-01-20T05:04:04;1.80;91.30
26186;DHT22;20067;48.764;9.176;2023-01-20T05:06:30;1.80;91.30
26186;DHT22;20067;48.764;9.176;2023-01-20T05:08:55;1.90;91.30
26186;DHT22;20067;48.764;9.176;2023-01-20T05:11:21;2.00;91.30
26186;DHT22;20067;48.764;9.176;2023-01-20T05:13:46;2.00;91.30
26186;DHT22;20067;48.764;9.176;2023-01-20T05:16:12;1.90;91.30
26186;DHT22;20067;48.764;9.176;2023-01-20T05:18:38;1.70;91.30
26186;DHT22;20067;48.764;9.176;2023-01-20T05:21:04;1.80;91.30
26186;DHT22;20067;48.764;9.176;2023-01-20T05:23:30;1.90;91.30
26186;DHT22;20067;48.764;9.176;2023-01-20T05:25:55;1.90;91.30
26186;DHT22;20067;48.764;9.176;2023-01-20T05:28:21;1.90;91.30
26186;DHT22;20067;48.764;9.176;2023-01-20T05:30:47;2.00;91.30
26186;DHT22;20067;48.764;9.176;2023-01-20T05:33:13;2.00;91.30
26186;DHT22;20067;48.764;9.176;2023-01-20T05:35:41;2.10;91.30
26186;DHT22;20067;48.764;9.176;2023-01-20T05:38:07;2.10;91.30
26186;DHT22;20067;48.764;9.176;2023-01-20T05:40:33;2.10;91.30
26186;DHT22;20067;48.764;9.176;2023-01-20T05:43:02;2.10;91.30
26186;DHT22;20067;48.764;9.176;2023-01-20T05:45:28;2.10;91.30
26186;DHT22;20067;48.764;9.176;2023-01-20T05:47:55;2.10;91.30
26186;DHT22;20067;48.764;9.176;2023-01-20T05:50:21;2.10;91.30
26186;DHT22;20067;48.764;9.176;2023-01-20T05:52:46;2.10;91.30
26186;DHT22;20067;48.764;9.176;2023-01-20T05:55:12;2.10;91.30
26186;DHT22;20067;48.764;9.176;2023-01-20T05:57:37;2.00;91.30
26186;DHT22;20067;48.764;9.176;2023-01-20T06:00:04;1.90;91.30
26186;DHT22;20067;48.764;9.176;2023-01-20T06:02:30;1.90;91.30
26186;DHT22;20067;48.764;9.176;2023-01-20T06:04:56;1.90;91.30
26186;DHT22;20067;48.764;9.176;2023-01-20T06:07:21;2.00;91.30
26186;DHT22;20067;48.764;9.176;2023-01-20T06:09:47;2.00;91.30
26186;DHT22;20067;48.764;9.176;2023-01-20T06:12:13;1.90;91.30
26186;DHT22;20067;48.764;9.176;2023-01-20T06:14:38;1.90;91.30
26186;DHT22;20067;48.764;9.176;2023-01-20T06:17:04;1.80;91.30
26186;DHT22;20067;48.764;9.176;2023-01-20T06:19:29;1.80;91.30
26186;DHT22;20067;48.764;9.176;2023-01-20T06:21:55;1.90;91.30
26186;DHT22;20067;48.764;9.176;2023-01-20T06:24:21;1.90;91.30
26186;DHT22;20067;48.764;9.176;2023-01-20T06:26:49;1.90;91.30
26186;DHT22;20067;48.764;9.176;2023-01-20T06:29:15;1.60;91.30
26186;DHT22;20067;48.764;9.176;2023-01-20T06:31:40;1.70;91.30
26186;DHT22;20067;48.764;9.176;2023-01-20T06:34:06;1.70;91.30
26186;DHT22;20067;48.764;9.176;2023-01-20T06:36:32;1.70;91.30
26186;DHT22;20067;48.764;9.176;2023-01-20T06:38:57;1.70;91.30
26186;DHT22;20067;48.764;9.176;2023-01-20T06:41:23;1.70;91.30
26186;DHT22;20067;48.764;9.176;2023-01-20T06:44:04;1.60;91.30
26186;DHT22;20067;48.764;9.176;2023-01-20T06:46:29;1.50;91.30
26186;DHT22;20067;48.764;9.176;2023-01-20T06:48:55;1.50;91.30
26186;DHT22;20067;48.764;9.176;2023-01-20T06:51:26;1.60;91.30
26186;DHT22;20067;48.764;9.176;2023-01-20T06:53:53;1.50;91.30
26186;DHT22;20067;48.764;9.176;2023-01-20T06:56:19;1.60;91.30
26186;DHT22;20067;48.764;9.176;2023-01-20T06:58:45;1.60;91.30
26186;DHT22;20067;48.764;9.176;2023-01-20T07:01:25;1.60;91.30
26186;DHT22;20067;48.764;9.176;2023-01-20T07:03:51;1.60;91.30
26186;DHT22;20067;48.764;9.176;2023-01-20T07:06:36;1.60;91.30
26186;DHT22;20067;48.764;9.176;2023-01-20T07:09:04;1.50;91.30
26186;DHT22;20067;48.764;9.176;2023-01-20T07:11:31;1.50;91.30
26186;DHT22;20067;48.764;9.176;2023-01-20T07:13:59;1.50;91.30
26186;DHT22;20067;48.764;9.176;2023-01-20T07:16:25;1.40;91.30
26186;DHT22;20067;48.764;9.176;2023-01-20T07:18:51;1.50;91.30
26186;DHT22;20067;48.764;9.176;2023-01-20T07:21:17;1.50;91.30
26186;DHT22;20067;48.764;9.176;2023-01-20T07:23:43;1.60;91.30
26186;DHT22;20067;48.764;9.176;2023-01-20T07:26:11;1.60;91.30
26186;DHT22;20067;48.764;9.176;2023-01-20T07:28:37;1.70;91.30
26186;DHT22;20067;48.764;9.176;2023-01-20T07:31:09;1.60;91.30
26186;DHT22;20067;48.764;9.176;2023-01-20T07:33:35;1.60;91.30
26186;DHT22;20067;48.764;9.176;2023-01-20T07:36:01;1.60;91.30
26186;DHT22;20067;48.764;9.176;2023-01-20T07:38:27;1.60;91.30
26186;DHT22;20067;48.764;9.176;2023-01-20T07:40:58;1.70;91.30
26186;DHT22;20067;48.764;9.176;2023-01-20T07:43:24;1.70;91.30
26186;DHT22;20067;48.764;9.176;2023-01-20T07:45:49;1.70;91.30
26186;DHT22;20067;48.764;9.176;2023-01-20T07:48:18;1.70;91.30
26186;DHT22;20067;48.764;9.176;2023-01-20T07:50:44;1.70;91.30
26186;DHT22;20067;48.764;9.176;2023-01-20T07:53:09;1.70;91.30
26186;DHT22;20067;48.764;9.176;2023-01-20T07:55:35;1.80;91.30
26186;DHT22;20067;48.764;9.176;2023-01-20T07:58:01;1.80;91.30
26186;DHT22;20067;48.764;9.176;2023-01-20T08:00:26;1.80;91.30
26186;DHT22;20067;48.764;9.176;2023-01-20T08:02:52;1.90;91.30
26186;DHT22;20067;48.764;9.176;2023-01-20T08:05:17;1.90;91.30
26186;DHT22;20067;48.764;9.176;2023-01-20T08:07:43;2.00;91.30
26186;DHT22;20067;48.764;9.176;2023-01-20T08:10:09;2.00;91.30
26186;DHT22;20067;48.764;9.176;2023-01-20T08:12:35;2.10;91.30
26186;DHT22;20067;48.764;9.176;2023-01-20T08:15:00;2.10;91.30
26186;DHT22;20067;48.764;9.176;2023-01-20T08:17:26;2.10;91.30
26186;DHT22;20067;48.764;9.176;2023-01-20T08:19:51;2.10;91.30
26186;DHT22;20067;48.764;9.176;2023-01-20T08:22:17;2.00;91.30
26186;DHT22;20067;48.764;9.176;2023-01-20T08:24:42;1.90;91.30
26186;DHT22;20067;48.764;9.176;2023-01-20T08:27:08;1.90;91.30
26186;DHT22;20067;48.764;9.176;2023-01-20T08:29:34;2.00;91.30
26186;DHT22;20067;48.764;9.176;2023-01-20T08:32:00;2.00;91.30
26186;DHT22;20067;48.764;9.176;2023-01-20T08:34:26;2.10;91.30
26186;DHT22;20067;48.764;9.176;2023-01-20T08:36:52;2.10;91.30
26186;DHT22;20067;48.764;9.176;2023-01-20T08:39:21;2.10;91.30
26186;DHT22;20067;48.764;9.176;2023-01-20T08:41:48;2.20;91.30
26186;DHT22;20067;48.764;9.176;2023-01-20T08:44:14;2.20;91.30
26186;DHT22;20067;48.764;9.176;2023-01-20T08:46:41;2.20;91.30
26186;DHT22;20067;48.764;9.176;2023-01-20T08:49:13;2.20;91.30
26186;DHT22;20067;48.764;9.176;2023-01-20T08:51:39;2.10;91.30
26186;DHT22;20067;48.764;9.176;2023-01-20T08:54:05;2.10;91.30
26186;DHT22;20067;48.764;9.176;2023-01-20T08:56:31;2.10;91.30
26186;DHT22;20067;48.764;9.176;2023-01-20T08:58:58;2.20;91.30
26186;DHT22;20067;48.764;9.176;2023-01-20T09:01:29;2.30;91.30
26186;DHT22;20067;48.764;9.176;2023-01-20T09:03:56;2.30;91.30
26186;DHT22;20067;48.764;9.176;2023-01-20T09:06:21;2.30;91.30
26186;DHT22;20067;48.764;9.176;2023-01-20T09:08:48;2.10;91.30
26186;DHT22;20067;48.764;9.176;2023-01-20T09:11:19;2.10;91.30
26186;DHT22;20067;48.764;9.176;2023-01-20T09:13:45;2.10;91.30
26186;DHT22;20067;48.764;9.176;2023-01-20T09:16:13;2.00;91.30
26186;DHT22;20067;48.764;9.176;2023-01-20T09:18:39;2.00;91.30
26186;DHT22;20067;48.764;9.176;2023-01-20T09:21:05;2.00;91.30
26186;DHT22;20067;48.764;9.176;2023-01-20T09:23:32;2.00;91.30
26186;DHT22;20067;48.764;9.176;2023-01-20T09:26:00;1.90;91.30
26186;DHT22;20067;48.764;9.176;2023-01-20T09:28:27;1.90;91.30
26186;DHT22;20067;48.764;9.176;2023-01-20T09:30:59;2.00;91.30
26186;DHT22;20067;48.764;9.176;2023-01-20T09:33:25;2.10;91.30
26186;DHT22;20067;48.764;9.176;2023-01-20T09:35:58;2.10;91.30
26186;DHT22;20067;48.764;9.176;2023-01-20T09:38:25;2.10;91.30
26186;DHT22;20067;48.764;9.176;2023-01-20T09:41:30;2.30;91.30
26186;DHT22;20067;48.764;9.176;2023-01-20T09:56:17;2.70;91.30
26186;DHT22;20067;48.764;9.176;2023-01-20T09:58:51;2.80;91.30
26186;DHT22;20067;48.764;9.176;2023-01-20T10:07:24;3.10;90.80
26186;DHT22;20067;48.764;9.176;2023-01-20T10:12:19;3.20;90.30
26186;DHT22;20067;48.764;9.176;2023-01-20T10:14:52;3.40;90.20
26186;DHT22;20067;48.764;9.176;2023-01-20T10:17:24;3.40;89.20
26186;DHT22;20067;48.764;9.176;2023-01-20T10:22:29;3.30;89.60
26186;DHT22;20067;48.764;9.176;2023-01-20T10:25:14;3.40;89.40
26186;DHT22;20067;48.764;9.176;2023-01-20T10:27:47;3.60;89.70
26186;DHT22;20067;48.764;9.176;2023-01-20T10:30:16;3.80;88.50
26186;DHT22;20067;48.764;9.176;2023-01-20T10:32:52;4.10;87.90
26186;DHT22;20067;48.764;9.176;2023-01-20T10:35:26;4.20;86.90
26186;DHT22;20067;48.764;9.176;2023-01-20T10:37:53;4.30;86.80
26186;DHT22;20067;48.764;9.176;2023-01-20T10:42:54;4.90;85.80
26186;DHT22;20067;48.764;9.176;2023-01-20T10:48:19;5.40;83.10
26186;DHT22;20067;48.764;9.176;2023-01-20T10:50:52;5.30;83.20
26186;DHT22;20067;48.764;9.176;2023-01-20T10:53:31;5.40;82.90
26186;DHT22;20067;48.764;9.176;2023-01-20T10:58:50;6.70;80.30
26186;DHT22;20067;48.764;9.176;2023-01-20T11:01:17;7.50;76.70
26186;DHT22;20067;48.764;9.176;2023-01-20T11:03:46;7.50;76.10
26186;DHT22;20067;48.764;9.176;2023-01-20T11:06:24;7.10;76.00
26186;DHT22;20067;48.764;9.176;2023-01-20T11:08:51;7.30;76.80
26186;DHT22;20067;48.764;9.176;2023-01-20T11:11:20;8.50;74.20
26186;DHT22;20067;48.764;9.176;2023-01-20T11:13:47;10.30;70.40
26186;DHT22;20067;48.764;9.176;2023-01-20T11:16:18;10.80;67.50
26186;DHT22;20067;48.764;9.176;2023-01-20T11:19:04;11.60;65.50
26186;DHT22;20067;48.764;9.176;2023-01-20T11:21:33;12.50;63.60
26186;DHT22;20067;48.764;9.176;2023-01-20T11:24:02;11.90;63.90
26186;DHT22;20067;48.764;9.176;2023-01-20T11:26:34;12.10;63.30
26186;DHT22;20067;48.764;9.176;2023-01-20T11:31:47;13.20;60.60
26186;DHT22;20067;48.764;9.176;2023-01-20T11:42:24;12.10;59.80
26186;DHT22;20067;48.764;9.176;2023-01-20T11:49:45;9.30;66.10
26186;DHT22;20067;48.764;9.176;2023-01-20T11:52:19;8.40;67.60
26186;DHT22;20067;48.764;9.176;2023-01-20T11:54:45;7.90;69.80
26186;DHT22;20067;48.764;9.176;2023-01-20T11:57:15;7.30;71.50
26186;DHT22;20067;48.764;9.176;2023-01-20T11:59:48;6.80;73.00
26186;DHT22;20067;48.764;9.176;2023-01-20T12:10:10;5.60;76.30
26186;DHT22;20067;48.764;9.176;2023-01-20T12:12:39;5.40;77.00
26186;DHT22;20067;48.764;9.176;2023-01-20T12:15:24;5.40;77.40
26186;DHT22;20067;48.764;9.176;2023-01-20T12:18:06;5.40;76.90
26186;DHT22;20067;48.764;9.176;2023-01-20T12:20:45;5.00;76.90
26186;DHT22;20067;48.764;9.176;2023-01-20T12:23:15;4.90;76.00
26186;DHT22;20067;48.764;9.176;2023-01-20T12:30:58;5.00;76.60
26186;DHT22;20067;48.764;9.176;2023-01-20T12:33:33;5.00;76.70
26186;DHT22;20067;48.764;9.176;2023-01-20T12:42:03;4.90;77.70
26186;DHT22;20067;48.764;9.176;2023-01-20T12:56:06;4.30;78.00
26186;DHT22;20067;48.764;9.176;2023-01-20T13:10:22;4.00;79.70
26186;DHT22;20067;48.764;9.176;2023-01-20T13:13:07;4.00;80.00
26186;DHT22;20067;48.764;9.176;2023-01-20T13:15:36;3.90;80.40
26186;DHT22;20067;48.764;9.176;2023-01-20T13:18:33;3.80;80.60
26186;DHT22;20067;48.764;9.176;2023-01-20T13:20:59;3.80;81.40
26186;DHT22;20067;48.764;9.176;2023-01-20T13:23:32;3.60;81.90
26186;DHT22;20067;48.764;9.176;2023-01-20T13:26:02;3.70;82.10
26186;DHT22;20067;48.764;9.176;2023-01-20T13:28:29;3.80;82.70
26186;DHT22;20067;48.764;9.176;2023-01-20T13:30:57;3.70;82.30
26186;DHT22;20067;48.764;9.176;2023-01-20T13:35:56;3.60;81.20
26186;DHT22;20067;48.764;9.176;2023-01-20T13:38:24;3.70;82.00
26186;DHT22;20067;48.764;9.176;2023-01-20T13:40:54;3.80;81.70
26186;DHT22;20067;48.764;9.176;2023-01-20T13:56:49;4.20;80.70
26186;DHT22;20067;48.764;9.176;2023-01-20T13:59:15;4.30;80.70
26186;DHT22;20067;48.764;9.176;2023-01-20T14:01:41;4.50;80.60
26186;DHT22;20067;48.764;9.176;2023-01-20T14:04:16;4.50;79.80
26186;DHT22;20067;48.764;9.176;2023-01-20T14:06:48;4.60;79.90
26186;DHT22;20067;48.764;9.176;2023-01-20T14:09:22;4.70;79.90
26186;DHT22;20067;48.764;9.176;2023-01-20T14:11:53;4.70;78.40
26186;DHT22;20067;48.764;9.176;2023-01-20T14:14:22;4.70;78.40
26186;DHT22;20067;48.764;9.176;2023-01-20T14:16:48;4.70;78.90
26186;DHT22;20067;48.764;9.176;2023-01-20T14:21:52;5.00;78.10
26186;DHT22;20067;48.764;9.176;2023-01-20T14:24:35;5.00;77.20
26186;DHT22;20067;48.764;9.176;2023-01-20T14:27:21;5.00;75.80
26186;DHT22;20067;48.764;9.176;2023-01-20T14:29:51;4.90;75.50
26186;DHT22;20067;48.764;9.176;2023-01-20T14:32:27;4.90;76.20
26186;DHT22;20067;48.764;9.176;2023-01-20T14:34:53;4.80;77.20
26186;DHT22;20067;48.764;9.176;2023-01-20T14:37:29;4.70;76.60
26186;DHT22;20067;48.764;9.176;2023-01-20T14:39:56;4.60;76.80
26186;DHT22;20067;48.764;9.176;2023-01-20T14:42:25;4.50;77.20
26186;DHT22;20067;48.764;9.176;2023-01-20T14:44:52;4.40;76.70
26186;DHT22;20067;48.764;9.176;2023-01-20T14:47:20;4.40;77.30
26186;DHT22;20067;48.764;9.176;2023-01-20T14:49:47;4.50;76.70
26186;DHT22;20067;48.764;9.176;2023-01-20T14:52:21;4.50;76.70
26186;DHT22;20067;48.764;9.176;2023-01-20T14:54:48;4.40;76.80
26186;DHT22;20067;48.764;9.176;2023-01-20T14:57:20;4.20;77.00
26186;DHT22;20067;48.764;9.176;2023-01-20T15:02:49;4.00;77.50
26186;DHT22;20067;48.764;9.176;2023-01-20T15:08:14;3.90;78.50
26186;DHT22;20067;48.764;9.176;2023-01-20T15:10:41;4.00;78.40
26186;DHT22;20067;48.764;9.176;2023-01-20T15:13:27;3.90;78.70
26186;DHT22;20067;48.764;9.176;2023-01-20T15:16:17;3.90;79.10
26186;DHT22;20067;48.764;9.176;2023-01-20T15:19:13;4.00;78.70
26186;DHT22;20067;48.764;9.176;2023-01-20T15:21:29;4.00;78.50
26186;DHT22;20067;48.764;9.176;2023-01-20T15:24:15;3.90;78.60
26186;DHT22;20067;48.764;9.176;2023-01-20T15:26:41;3.90;79.00
26186;DHT22;20067;48.764;9.176;2023-01-20T15:29:28;3.70;79.90
26186;DHT22;20067;48.764;9.176;2023-01-20T15:31:56;3.50;80.30
26186;DHT22;20067;48.764;9.176;2023-01-20T15:34:22;3.40;81.20
26186;DHT22;20067;48.764;9.176;2023-01-20T15:36:50;3.30;82.30
26186;DHT22;20067;48.764;9.176;2023-01-20T15:39:18;3.20;82.70
26186;DHT22;20067;48.764;9.176;2023-01-20T15:41:44;3.00;82.70
26186;DHT22;20067;48.764;9.176;2023-01-20T15:44:11;2.90;83.40
26186;DHT22;20067;48.764;9.176;2023-01-20T15:46:38;2.90;83.10
26186;DHT22;20067;48.764;9.176;2023-01-20T15:49:09;2.90;82.20
26186;DHT22;20067;48.764;9.176;2023-01-20T15:51:35;2.80;81.80
26186;DHT22;20067;48.764;9.176;2023-01-20T15:54:01;2.90;80.40
26186;DHT22;20067;48.764;9.176;2023-01-20T15:56:28;2.80;81.70
26186;DHT22;20067;48.764;9.176;2023-01-20T15:58:55;2.70;82.10
26186;DHT22;20067;48.764;9.176;2023-01-20T16:01:22;2.60;82.20
26186;DHT22;20067;48.764;9.176;2023-01-20T16:03:52;2.50;83.60
26186;DHT22;20067;48.764;9.176;2023-01-20T16:06:26;2.50;83.00
26186;DHT22;20067;48.764;9.176;2023-01-20T16:08:52;2.40;82.60
26186;DHT22;20067;48.764;9.176;2023-01-20T16:11:18;2.40;83.10
26186;DHT22;20067;48.764;9.176;2023-01-20T16:13:44;2.30;83.10
26186;DHT22;20067;48.764;9.176;2023-01-20T16:16:17;2.20;83.50
26186;DHT22;20067;48.764;9.176;2023-01-20T16:18:43;2.10;83.60
26186;DHT22;20067;48.764;9.176;2023-01-20T16:21:14;2.00;83.90
26186;DHT22;20067;48.764;9.176;2023-01-20T16:23:40;2.00;84.30
26186;DHT22;20067;48.764;9.176;2023-01-20T16:26:19;2.00;84.70
26186;DHT22;20067;48.764;9.176;2023-01-20T16:28:50;1.80;85.70
26186;DHT22;20067;48.764;9.176;2023-01-20T16:31:15;1.80;85.70
26186;DHT22;20067;48.764;9.176;2023-01-20T16:33:41;1.80;85.40
26186;DHT22;20067;48.764;9.176;2023-01-20T16:36:12;1.80;85.60
26186;DHT22;20067;48.764;9.176;2023-01-20T16:38:38;1.80;85.80
26186;DHT22;20067;48.764;9.176;2023-01-20T16:41:19;1.80;86.30
26186;DHT22;20067;48.764;9.176;2023-01-20T16:43:44;1.70;86.50
26186;DHT22;20067;48.764;9.176;2023-01-20T16:46:15;1.70;87.30
26186;DHT22;20067;48.764;9.176;2023-01-20T16:48:42;1.80;87.70
26186;DHT22;20067;48.764;9.176;2023-01-20T16:51:14;1.80;87.90
26186;DHT22;20067;48.764;9.176;2023-01-20T16:53:40;1.80;88.00
26186;DHT22;20067;48.764;9.176;2023-01-20T16:56:15;1.80;87.90
26186;DHT22;20067;48.764;9.176;2023-01-20T16:58:46;1.70;88.40
26186;DHT22;20067;48.764;9.176;2023-01-20T17:01:11;1.60;88.40
26186;DHT22;20067;48.764;9.176;2023-01-20T17:03:45;1.60;88.50
26186;DHT22;20067;48.764;9.176;2023-01-20T17:06:14;1.50;88.70
26186;DHT22;20067;48.764;9.176;2023-01-20T17:08:50;1.60;89.00
26186;DHT22;20067;48.764;9.176;2023-01-20T17:11:24;1.50;89.30
26186;DHT22;20067;48.764;9.176;2023-01-20T17:13:50;1.60;89.30
26186;DHT22;20067;48.764;9.176;2023-01-20T17:16:16;1.50;89.50
26186;DHT22;20067;48.764;9.176;2023-01-20T17:18:42;1.50;89.70
26186;DHT22;20067;48.764;9.176;2023-01-20T17:21:12;1.40;89.90
26186;DHT22;20067;48.764;9.176;2023-01-20T17:23:38;1.50;89.00
26186;DHT22;20067;48.764;9.176;2023-01-20T17:26:05;1.50;89.10
26186;DHT22;20067;48.764;9.176;2023-01-20T17:28:32;1.50;89.50
26186;DHT22;20067;48.764;9.176;2023-01-20T17:31:02;1.30;90.20
26186;DHT22;20067;48.764;9.176;2023-01-20T17:33:28;1.30;90.40
26186;DHT22;20067;48.764;9.176;2023-01-20T17:35:58;1.30;90.60
26186;DHT22;20067;48.764;9.176;2023-01-20T17:38:26;1.40;90.70
26186;DHT22;20067;48.764;9.176;2023-01-20T17:40:52;1.30;90.60
26186;DHT22;20067;48.764;9.176;2023-01-20T17:43:18;1.40;90.30
26186;DHT22;20067;48.764;9.176;2023-01-20T17:45:43;1.40;90.40
26186;DHT22;20067;48.764;9.176;2023-01-20T17:48:09;1.40;90.40
26186;DHT22;20067;48.764;9.176;2023-01-20T17:50:34;1.40;90.30
26186;DHT22;20067;48.764;9.176;2023-01-20T17:53:00;1.30;90.90
26186;DHT22;20067;48.764;9.176;2023-01-20T17:55:26;1.20;91.30
26186;DHT22;20067;48.764;9.176;2023-01-20T17:57:52;1.20;91.30
26186;DHT22;20067;48.764;9.176;2023-01-20T18:00:18;1.10;91.30
26186;DHT22;20067;48.764;9.176;2023-01-20T18:02:43;1.20;91.30
26186;DHT22;20067;48.764;9.176;2023-01-20T18:05:09;1.20;91.00
26186;DHT22;20067;48.764;9.176;2023-01-20T18:07:35;1.20;90.40
26186;DHT22;20067;48.764;9.176;2023-01-20T18:10:01;1.20;90.60
26186;DHT22;20067;48.764;9.176;2023-01-20T18:12:26;1.10;90.70
26186;DHT22;20067;48.764;9.176;2023-01-20T18:14:52;1.10;91.00
26186;DHT22;20067;48.764;9.176;2023-01-20T18:17:19;0.90;91.30
26186;DHT22;20067;48.764;9.176;2023-01-20T18:19:45;1.00;91.10
26186;DHT22;20067;48.764;9.176;2023-01-20T18:22:11;1.00;90.90